sensor_id;sensor_type;location;lat;lon;timestamp;temperature;humidity
20102;DHT22;10210;52.284;9.892;2024-03-02T00:02:13;12.30;99.90
20102;DHT22;10210;52.284;9.892;2024-03-02T00:04:39;12.30;99.90
20102;DHT22;10210;52.284;9.892;2024-03-02T00:07:06;12.30;99.90
20102;DHT22;10210;52.284;9.892;2024-03-02T00:09:33;12.30;99.90
20102;DHT22;10210;52.284;9.892;2024-03-02T00:12:00;12.30;99.90
20102;DHT22;10210;52.284;9.892;2024-03-02T00:14:31;12.20;99.90
20102;DHT22;10210;52.284;9.892;2024-03-02T00:16:57;12.30;99.90
20102;DHT22;10210;52.284;9.892;2024-03-02T00:19:23;12.30;99.90
20102;DHT22;10210;52.284;9.892;2024-03-02T00:21:48;12.30;99.90
20102;DHT22;10210;52.284;9.892;2024-03-02T00:24:32;12.30;99.90
20102;DHT22;10210;52.284;9.892;2024-03-02T00:27:00;12.30;99.90
20102;DHT22;10210;52.284;9.892;2024-03-02T00:29:29;12.30;99.90
20102;DHT22;10210;52.284;9.892;2024-03-02T00:31:55;12.30;99.90
20102;DHT22;10210;52.284;9.892;2024-03-02T00:34:21;12.20;99.90
20102;DHT22;10210;52.284;9.892;2024-03-02T00:36:47;12.30;99.90
20102;DHT22;10210;52.284;9.892;2024-03-02T00:39:15;12.20;99.90
20102;DHT22;10210;52.284;9.892;2024-03-02T00:41:43;12.20;99.90
20102;DHT22;10210;52.284;9.892;2024-03-02T00:44:12;12.20;99.90
20102;DHT22;10210;52.284;9.892;2024-03-02T00:46:39;12.20;99.90
20102;DHT22;10210;52.284;9.892;2024-03-02T00:51:39;12.20;99.90
20102;DHT22;10210;52.284;9.892;2024-03-02T00:54:07;12.20;99.90
20102;DHT22;10210;52.284;9.892;2024-03-02T00:56:34;12.20;99.90
20102;DHT22;10210;52.284;9.892;2024-03-02T00:59:01;12.20;99.90
20102;DHT22;10210;52.284;9.892;2024-03-02T01:01:26;12.20;99.90
20102;DHT22;10210;52.284;9.892;2024-03-02T01:03:52;12.20;99.90
20102;DHT22;10210;52.284;9.892;2024-03-02T01:06:18;12.20;99.90
20102;DHT22;10210;52.284;9.892;2024-03-02T01:08:44;12.30;99.90
20102;DHT22;10210;52.284;9.892;2024-03-02T01:11:11;12.30;99.90
20102;DHT22;10210;52.284;9.892;2024-03-02T01:13:37;12.30;99.90
20102;DHT22;10210;52.284;9.892;2024-03-02T01:16:03;12.30;99.90
20102;DHT22;10210;52.284;9.892;2024-03-02T01:18:29;12.30;99.90
20102;DHT22;10210;52.284;9.892;2024-03-02T01:20:55;12.30;99.90
20102;DHT22;10210;52.284;9.892;2024-03-02T01:23:22;12.30;99.90
20102;DHT22;10210;52.284;9.892;2024-03-02T01:25:48;12.30;99.90
20102;DHT22;10210;52.284;9.892;2024-03-02T01:28:14;12.30;99.90
20102;DHT22;10210;52.284;9.892;2024-03-02T01:30:40;12.30;99.90
20102;DHT22;10210;52.284;9.892;2024-03-02T01:33:06;12.30;99.90
20102;DHT22;10210;52.284;9.892;2024-03-02T01:35:32;12.30;99.90
20102;DHT22;10210;52.284;9.892;2024-03-02T01:37:58;12.30;99.90
20102;DHT22;10210;52.284;9.892;2024-03-02T01:40:24;12.30;99.90
20102;DHT22;10210;52.284;9.892;2024-03-02T01:42:54;12.30;99.90
20102;DHT22;10210;52.284;9.892;2024-03-02T01:45:21;12.30;99.90
20102;DHT22;10210;52.284;9.892;2024-03-02T01:47:47;12.30;99.90
20102;DHT22;10210;52.284;9.892;2024-03-02T01:50:13;12.30;99.90
20102;DHT22;10210;52.284;9.892;2024-03-02T01:52:40;12.30;99.90
20102;DHT22;10210;52.284;9.892;2024-03-02T01:55:06;12.30;99.90
20102;DHT22;10210;52.284;9.892;2024-03-02T01:57:33;12.20;99.90
20102;DHT22;10210;52.284;9.892;2024-03-02T02:00:02;12.20;99.90
20102;DHT22;10210;52.284;9.892;2024-03-02T02:02:28;12.20;99.90
20102;DHT22;10210;52.284;9.892;2024-03-02T02:04:54;12.20;99.90
20102;DHT22;10210;52.284;9.892;2024-03-02T02:07:20;12.10;99.90
20102;DHT22;10210;52.284;9.892;2024-03-02T02:09:45;12.10;99.90
20102;DHT22;10210;52.284;9.892;2024-03-02T02:12:11;12.10;99.90
20102;DHT22;10210;52.284;9.892;2024-03-02T02:14:37;12.00;99.90
20102;DHT22;10210;52.284;9.892;2024-03-02T02:17:02;12.00;99.90
20102;DHT22;10210;52.284;9.892;2024-03-02T02:19:28;12.00;99.90
20102;DHT22;10210;52.284;9.892;2024-03-02T02:21:55;12.00;99.90
20102;DHT22;10210;52.284;9.892;2024-03-02T02:24:21;11.90;99.90
20102;DHT22;10210;52.284;9.892;2024-03-02T02:26:47;11.90;99.90
20102;DHT22;10210;52.284;9.892;2024-03-02T02:29:12;11.90;99.90
20102;DHT22;10210;52.284;9.892;2024-03-02T02:31:39;11.80;99.90
20102;DHT22;10210;52.284;9.892;2024-03-02T02:34:06;11.80;99.90
20102;DHT22;10210;52.284;9.892;2024-03-02T02:36:33;11.80;99.90
20102;DHT22;10210;52.284;9.892;2024-03-02T02:39:02;11.70;99.90
20102;DHT22;10210;52.284;9.892;2024-03-02T02:41:29;11.70;99.90
20102;DHT22;10210;52.284;9.892;2024-03-02T02:43:55;11.70;99.90
20102;DHT22;10210;52.284;9.892;2024-03-02T02:46:22;11.70;99.90
20102;DHT22;10210;52.284;9.892;2024-03-02T02:48:48;11.70;99.90
20102;DHT22;10210;52.284;9.892;2024-03-02T02:51:13;11.70;99.90
20102;DHT22;10210;52.284;9.892;2024-03-02T02:53:39;11.70;99.90
20102;DHT22;10210;52.284;9.892;2024-03-02T02:56:06;11.80;99.90
20102;DHT22;10210;52.284;9.892;2024-03-02T02:58:32;11.80;99.90
20102;DHT22;10210;52.284;9.892;2024-03-02T03:00:58;11.80;99.90
20102;DHT22;10210;52.284;9.892;2024-03-02T03:03:23;11.80;99.90
20102;DHT22;10210;52.284;9.892;2024-03-02T03:05:49;11.80;99.90
20102;DHT22;10210;52.284;9.892;2024-03-02T03:08:15;11.80;99.90
20102;DHT22;10210;52.284;9.892;2024-03-02T03:10:41;11.80;99.90
20102;DHT22;10210;52.284;9.892;2024-03-02T03:13:08;11.80;99.90
20102;DHT22;10210;52.284;9.892;2024-03-02T03:15:37;11.80;99.90
20102;DHT22;10210;52.284;9.892;2024-03-02T03:18:03;11.80;99.90
20102;DHT22;10210;52.284;9.892;2024-03-02T03:20:30;11.80;99.90
20102;DHT22;10210;52.284;9.892;2024-03-02T03:22:56;11.80;99.90
20102;DHT22;10210;52.284;9.892;2024-03-02T03:25:23;11.80;99.90
20102;DHT22;10210;52.284;9.892;2024-03-02T03:27:48;11.80;99.90
20102;DHT22;10210;52.284;9.892;2024-03-02T03:30:14;11.80;99.90
20102;DHT22;10210;52.284;9.892;2024-03-02T03:32:40;11.80;99.90
20102;DHT22;10210;52.284;9.892;2024-03-02T03:35:06;11.80;99.90
20102;DHT22;10210;52.284;9.892;2024-03-02T03:37:32;11.80;99.90
20102;DHT22;10210;52.284;9.892;2024-03-02T03:39:59;11.80;99.90
20102;DHT22;10210;52.284;9.892;2024-03-02T03:42:26;11.80;99.90
20102;DHT22;10210;52.284;9.892;2024-03-02T03:44:52;11.80;99.90
20102;DHT22;10210;52.284;9.892;2024-03-02T03:47:18;11.80;99.90
20102;DHT22;10210;52.284;9.892;2024-03-02T03:49:43;11.80;99.90
20102;DHT22;10210;52.284;9.892;2024-03-02T03:52:09;11.80;99.90
20102;DHT22;10210;52.284;9.892;2024-03-02T03:54:35;11.80;99.90
20102;DHT22;10210;52.284;9.892;2024-03-02T03:57:02;11.70;99.90
20102;DHT22;10210;52.284;9.892;2024-03-02T03:59:28;11.70;99.90
20102;DHT22;10210;52.284;9.892;2024-03-02T04:01:53;11.70;99.90
20102;DHT22;10210;52.284;9.892;2024-03-02T04:04:19;11.70;99.90
20102;DHT22;10210;52.284;9.892;2024-03-02T04:06:45;11.70;99.90
20102;DHT22;10210;52.284;9.892;2024-03-02T04:09:10;11.60;99.90
20102;DHT22;10210;52.284;9.892;2024-03-02T04:11:36;11.60;99.90
20102;DHT22;10210;52.284;9.892;2024-03-02T04:14:02;11.60;99.90
20102;DHT22;10210;52.284;9.892;2024-03-02T04:16:27;11.50;99.90
20102;DHT22;10210;52.284;9.892;2024-03-02T04:18:54;11.50;99.90
20102;DHT22;10210;52.284;9.892;2024-03-02T04:21:19;11.50;99.90
20102;DHT22;10210;52.284;9.892;2024-03-02T04:23:45;11.50;99.90
20102;DHT22;10210;52.284;9.892;2024-03-02T04:26:11;11.50;99.90
20102;DHT22;10210;52.284;9.892;2024-03-02T04:28:37;11.50;99.90
20102;DHT22;10210;52.284;9.892;2024-03-02T04:31:02;11.40;99.90
20102;DHT22;10210;52.284;9.892;2024-03-02T04:33:28;11.40;99.90
20102;DHT22;10210;52.284;9.892;2024-03-02T04:35:54;11.40;99.90
20102;DHT22;10210;52.284;9.892;2024-03-02T04:38:19;11.40;99.90
20102;DHT22;10210;52.284;9.892;2024-03-02T04:40:45;11.40;99.90
20102;DHT22;10210;52.284;9.892;2024-03-02T04:43:10;11.40;99.90
20102;DHT22;10210;52.284;9.892;2024-03-02T04:45:40;11.30;99.90
20102;DHT22;10210;52.284;9.892;2024-03-02T04:48:06;11.30;99.90
20102;DHT22;10210;52.284;9.892;2024-03-02T04:50:32;11.30;99.90
20102;DHT22;10210;52.284;9.892;2024-03-02T04:52:57;11.30;99.90
20102;DHT22;10210;52.284;9.892;2024-03-02T04:55:23;11.30;99.90
20102;DHT22;10210;52.284;9.892;2024-03-02T04:58:09;11.30;99.90
20102;DHT22;10210;52.284;9.892;2024-03-02T05:00:35;11.20;99.90
20102;DHT22;10210;52.284;9.892;2024-03-02T05:03:02;11.20;99.90
20102;DHT22;10210;52.284;9.892;2024-03-02T05:05:28;11.20;99.90
20102;DHT22;10210;52.284;9.892;2024-03-02T05:07:54;11.20;99.90
20102;DHT22;10210;52.284;9.892;2024-03-02T05:10:19;11.10;99.90
20102;DHT22;10210;52.284;9.892;2024-03-02T05:12:45;11.10;99.90
20102;DHT22;10210;52.284;9.892;2024-03-02T05:15:12;11.00;99.90
20102;DHT22;10210;52.284;9.892;2024-03-02T05:17:40;11.10;99.90
20102;DHT22;10210;52.284;9.892;2024-03-02T05:20:08;11.00;99.90
20102;DHT22;10210;52.284;9.892;2024-03-02T05:22:35;11.00;99.90
20102;DHT22;10210;52.284;9.892;2024-03-02T05:25:02;11.00;99.90
20102;DHT22;10210;52.284;9.892;2024-03-02T05:27:28;11.00;99.90
20102;DHT22;10210;52.284;9.892;2024-03-02T05:29:54;10.90;99.90
20102;DHT22;10210;52.284;9.892;2024-03-02T05:32:19;10.90;99.90
20102;DHT22;10210;52.284;9.892;2024-03-02T05:34:45;10.90;99.90
20102;DHT22;10210;52.284;9.892;2024-03-02T05:37:11;10.90;99.90
20102;DHT22;10210;52.284;9.892;2024-03-02T05:39:37;10.90;99.90
20102;DHT22;10210;52.284;9.892;2024-03-02T05:42:02;10.90;99.90
20102;DHT22;10210;52.284;9.892;2024-03-02T05:44:29;10.90;99.90
20102;DHT22;10210;52.284;9.892;2024-03-02T05:46:55;10.80;99.90
20102;DHT22;10210;52.284;9.892;2024-03-02T05:49:21;10.80;99.90
20102;DHT22;10210;52.284;9.892;2024-03-02T05:51:47;10.80;99.90
20102;DHT22;10210;52.284;9.892;2024-03-02T05:54:13;10.80;99.90
20102;DHT22;10210;52.284;9.892;2024-03-02T05:56:39;10.80;99.90
20102;DHT22;10210;52.284;9.892;2024-03-02T05:59:04;10.80;99.90
20102;DHT22;10210;52.284;9.892;2024-03-02T06:01:43;10.80;99.90
20102;DHT22;10210;52.284;9.892;2024-03-02T06:04:09;10.70;99.90
20102;DHT22;10210;52.284;9.892;2024-03-02T06:06:39;10.70;99.90
20102;DHT22;10210;52.284;9.892;2024-03-02T06:09:06;10.70;99.90
20102;DHT22;10210;52.284;9.892;2024-03-02T06:11:34;10.70;99.90
20102;DHT22;10210;52.284;9.892;2024-03-02T06:14:00;10.80;99.90
20102;DHT22;10210;52.284;9.892;2024-03-02T06:16:26;10.70;99.90
20102;DHT22;10210;52.284;9.892;2024-03-02T06:18:52;10.70;99.90
20102;DHT22;10210;52.284;9.892;2024-03-02T06:21:19;10.80;99.90
20102;DHT22;10210;52.284;9.892;2024-03-02T06:23:45;10.80;99.90
20102;DHT22;10210;52.284;9.892;2024-03-02T06:26:12;10.80;99.90
20102;DHT22;10210;52.284;9.892;2024-03-02T06:28:38;10.80;99.90
20102;DHT22;10210;52.284;9.892;2024-03-02T06:31:03;10.80;99.90
20102;DHT22;10210;52.284;9.892;2024-03-02T06:33:29;10.80;99.90
20102;DHT22;10210;52.284;9.892;2024-03-02T06:35:55;10.80;99.90
20102;DHT22;10210;52.284;9.892;2024-03-02T06:38:22;10.80;99.90
20102;DHT22;10210;52.284;9.892;2024-03-02T06:40:48;10.80;99.90
20102;DHT22;10210;52.284;9.892;2024-03-02T06:43:14;10.80;99.90
20102;DHT22;10210;52.284;9.892;2024-03-02T06:45:39;10.80;99.90
20102;DHT22;10210;52.284;9.892;2024-03-02T06:48:05;10.80;99.90
20102;DHT22;10210;52.284;9.892;2024-03-02T06:50:31;10.70;99.90
20102;DHT22;10210;52.284;9.892;2024-03-02T06:52:57;10.70;99.90
20102;DHT22;10210;52.284;9.892;2024-03-02T06:55:22;10.70;99.90
20102;DHT22;10210;52.284;9.892;2024-03-02T06:57:50;10.70;99.90
20102;DHT22;10210;52.284;9.892;2024-03-02T07:00:16;10.70;99.90
20102;DHT22;10210;52.284;9.892;2024-03-02T07:02:43;10.80;99.90
20102;DHT22;10210;52.284;9.892;2024-03-02T07:05:10;10.80;99.90
20102;DHT22;10210;52.284;9.892;2024-03-02T07:07:36;10.80;99.90
20102;DHT22;10210;52.284;9.892;2024-03-02T07:10:06;10.90;99.90
20102;DHT22;10210;52.284;9.892;2024-03-02T07:12:35;10.90;99.90
20102;DHT22;10210;52.284;9.892;2024-03-02T07:15:02;11.00;99.90
20102;DHT22;10210;52.284;9.892;2024-03-02T07:17:29;11.00;99.90
20102;DHT22;10210;52.284;9.892;2024-03-02T07:19:55;11.10;99.90
20102;DHT22;10210;52.284;9.892;2024-03-02T07:22:22;11.10;99.90
20102;DHT22;10210;52.284;9.892;2024-03-02T07:24:48;11.20;99.90
20102;DHT22;10210;52.284;9.892;2024-03-02T07:27:15;11.20;99.90
20102;DHT22;10210;52.284;9.892;2024-03-02T07:29:42;11.30;99.90
20102;DHT22;10210;52.284;9.892;2024-03-02T07:32:09;11.30;99.90
20102;DHT22;10210;52.284;9.892;2024-03-02T07:34:35;11.40;99.90
20102;DHT22;10210;52.284;9.892;2024-03-02T07:37:03;11.40;99.90
20102;DHT22;10210;52.284;9.892;2024-03-02T07:39:29;11.50;99.90
20102;DHT22;10210;52.284;9.892;2024-03-02T07:41:55;11.50;99.90
20102;DHT22;10210;52.284;9.892;2024-03-02T07:44:22;11.50;99.90
20102;DHT22;10210;52.284;9.892;2024-03-02T07:46:48;11.50;99.90
20102;DHT22;10210;52.284;9.892;2024-03-02T07:49:17;11.60;99.90
20102;DHT22;10210;52.284;9.892;2024-03-02T07:51:43;11.60;99.90
20102;DHT22;10210;52.284;9.892;2024-03-02T07:54:10;11.60;99.90
20102;DHT22;10210;52.284;9.892;2024-03-02T07:56:35;11.70;99.90
20102;DHT22;10210;52.284;9.892;2024-03-02T07:59:02;11.70;99.90
20102;DHT22;10210;52.284;9.892;2024-03-02T08:01:28;11.80;99.90
20102;DHT22;10210;52.284;9.892;2024-03-02T08:03:58;11.80;99.90
20102;DHT22;10210;52.284;9.892;2024-03-02T08:06:26;11.90;99.90
20102;DHT22;10210;52.284;9.892;2024-03-02T08:08:59;11.90;99.90
20102;DHT22;10210;52.284;9.892;2024-03-02T08:11:26;12.00;99.90
20102;DHT22;10210;52.284;9.892;2024-03-02T08:13:56;12.00;99.90
20102;DHT22;10210;52.284;9.892;2024-03-02T08:16:23;12.10;99.90
20102;DHT22;10210;52.284;9.892;2024-03-02T08:18:49;12.20;99.90
20102;DHT22;10210;52.284;9.892;2024-03-02T08:21:15;12.20;99.90
20102;DHT22;10210;52.284;9.892;2024-03-02T08:23:42;12.30;99.90
20102;DHT22;10210;52.284;9.892;2024-03-02T08:26:11;12.50;99.90
20102;DHT22;10210;52.284;9.892;2024-03-02T08:28:37;12.70;99.90
20102;DHT22;10210;52.284;9.892;2024-03-02T08:31:04;12.90;99.90
20102;DHT22;10210;52.284;9.892;2024-03-02T08:33:29;13.10;99.90
20102;DHT22;10210;52.284;9.892;2024-03-02T08:35:56;13.30;99.90
20102;DHT22;10210;52.284;9.892;2024-03-02T08:38:22;13.40;99.90
20102;DHT22;10210;52.284;9.892;2024-03-02T08:40:49;13.50;99.90
20102;DHT22;10210;52.284;9.892;2024-03-02T08:43:15;13.50;99.90
20102;DHT22;10210;52.284;9.892;2024-03-02T08:45:41;13.50;99.90
20102;DHT22;10210;52.284;9.892;2024-03-02T08:48:08;13.50;99.90
20102;DHT22;10210;52.284;9.892;2024-03-02T08:50:34;13.60;99.90
20102;DHT22;10210;52.284;9.892;2024-03-02T08:53:00;13.70;99.90
20102;DHT22;10210;52.284;9.892;2024-03-02T08:55:26;13.80;99.90
20102;DHT22;10210;52.284;9.892;2024-03-02T08:57:52;14.00;99.90
20102;DHT22;10210;52.284;9.892;2024-03-02T09:00:18;14.20;99.90
20102;DHT22;10210;52.284;9.892;2024-03-02T09:02:44;14.40;99.90
20102;DHT22;10210;52.284;9.892;2024-03-02T09:05:10;14.50;99.90
20102;DHT22;10210;52.284;9.892;2024-03-02T09:07:36;14.70;99.90
20102;DHT22;10210;52.284;9.892;2024-03-02T09:10:04;14.70;99.90
20102;DHT22;10210;52.284;9.892;2024-03-02T09:12:31;14.90;99.90
20102;DHT22;10210;52.284;9.892;2024-03-02T09:14:58;15.00;99.90
20102;DHT22;10210;52.284;9.892;2024-03-02T09:17:25;15.10;99.90
20102;DHT22;10210;52.284;9.892;2024-03-02T09:19:51;15.20;99.90
20102;DHT22;10210;52.284;9.892;2024-03-02T09:22:19;15.10;99.90
20102;DHT22;10210;52.284;9.892;2024-03-02T09:24:45;15.20;99.90
20102;DHT22;10210;52.284;9.892;2024-03-02T09:27:11;15.20;99.90
20102;DHT22;10210;52.284;9.892;2024-03-02T09:29:37;15.20;99.90
20102;DHT22;10210;52.284;9.892;2024-03-02T09:32:04;15.20;99.90
20102;DHT22;10210;52.284;9.892;2024-03-02T09:34:31;15.10;99.90
20102;DHT22;10210;52.284;9.892;2024-03-02T09:36:58;15.10;99.90
20102;DHT22;10210;52.284;9.892;2024-03-02T09:39:24;15.10;99.90
20102;DHT22;10210;52.284;9.892;2024-03-02T09:41:51;15.20;99.90
20102;DHT22;10210;52.284;9.892;2024-03-02T09:44:17;15.20;99.90
20102;DHT22;10210;52.284;9.892;2024-03-02T09:46:43;15.10;99.90
20102;DHT22;10210;52.284;9.892;2024-03-02T09:49:10;15.20;99.90
20102;DHT22;10210;52.284;9.892;2024-03-02T09:51:37;15.30;99.90
20102;DHT22;10210;52.284;9.892;2024-03-02T09:54:03;15.30;99.90
20102;DHT22;10210;52.284;9.892;2024-03-02T09:56:29;15.40;99.90
20102;DHT22;10210;52.284;9.892;2024-03-02T09:58:54;15.40;99.90
20102;DHT22;10210;52.284;9.892;2024-03-02T10:01:20;15.40;99.90
20102;DHT22;10210;52.284;9.892;2024-03-02T10:03:47;15.40;99.90
20102;DHT22;10210;52.284;9.892;2024-03-02T10:06:27;15.30;99.90
20102;DHT22;10210;52.284;9.892;2024-03-02T10:08:54;15.30;99.90
20102;DHT22;10210;52.284;9.892;2024-03-02T10:11:31;15.20;99.90
20102;DHT22;10210;52.284;9.892;2024-03-02T10:14:09;15.20;99.90
20102;DHT22;10210;52.284;9.892;2024-03-02T10:16:37;15.10;99.90
20102;DHT22;10210;52.284;9.892;2024-03-02T10:19:21;15.10;99.90
20102;DHT22;10210;52.284;9.892;2024-03-02T10:21:48;15.10;99.90
20102;DHT22;10210;52.284;9.892;2024-03-02T10:24:19;15.00;99.90
20102;DHT22;10210;52.284;9.892;2024-03-02T10:26:53;15.10;99.90
20102;DHT22;10210;52.284;9.892;2024-03-02T10:29:19;15.00;99.90
20102;DHT22;10210;52.284;9.892;2024-03-02T10:31:46;15.00;99.90
20102;DHT22;10210;52.284;9.892;2024-03-02T10:34:14;15.00;99.90
20102;DHT22;10210;52.284;9.892;2024-03-02T10:36:43;15.10;99.90
20102;DHT22;10210;52.284;9.892;2024-03-02T10:39:10;15.00;99.90
20102;DHT22;10210;52.284;9.892;2024-03-02T10:41:38;15.10;99.90
20102;DHT22;10210;52.284;9.892;2024-03-02T10:44:07;15.10;99.90
20102;DHT22;10210;52.284;9.892;2024-03-02T10:46:36;15.10;99.90
20102;DHT22;10210;52.284;9.892;2024-03-02T10:49:04;15.10;99.90
20102;DHT22;10210;52.284;9.892;2024-03-02T10:51:32;15.20;99.90
20102;DHT22;10210;52.284;9.892;2024-03-02T10:53:59;15.20;99.90
20102;DHT22;10210;52.284;9.892;2024-03-02T10:56:31;15.30;99.90
20102;DHT22;10210;52.284;9.892;2024-03-02T11:02:11;15.30;99.90
20102;DHT22;10210;52.284;9.892;2024-03-02T11:04:38;15.40;99.90
20102;DHT22;10210;52.284;9.892;2024-03-02T11:07:10;15.40;99.90
20102;DHT22;10210;52.284;9.892;2024-03-02T11:09:59;15.50;99.90
20102;DHT22;10210;52.284;9.892;2024-03-02T11:12:38;15.50;99.90
20102;DHT22;10210;52.284;9.892;2024-03-02T11:15:17;15.50;99.90
20102;DHT22;10210;52.284;9.892;2024-03-02T11:17:45;15.50;99.90
20102;DHT22;10210;52.284;9.892;2024-03-02T11:20:12;15.50;99.90
20102;DHT22;10210;52.284;9.892;2024-03-02T11:22:38;15.50;99.90
20102;DHT22;10210;52.284;9.892;2024-03-02T11:25:04;15.50;99.90
20102;DHT22;10210;52.284;9.892;2024-03-02T11:32:59;15.50;99.90
20102;DHT22;10210;52.284;9.892;2024-03-02T11:35:26;15.50;99.90
20102;DHT22;10210;52.284;9.892;2024-03-02T11:37:55;15.50;99.90
20102;DHT22;10210;52.284;9.892;2024-03-02T11:40:28;15.50;99.90
20102;DHT22;10210;52.284;9.892;2024-03-02T11:42:53;15.50;99.90
20102;DHT22;10210;52.284;9.892;2024-03-02T11:45:23;15.60;99.90
20102;DHT22;10210;52.284;9.892;2024-03-02T11:47:59;15.60;99.90
20102;DHT22;10210;52.284;9.892;2024-03-02T11:50:36;15.60;99.90
20102;DHT22;10210;52.284;9.892;2024-03-02T11:53:07;15.60;99.90
20102;DHT22;10210;52.284;9.892;2024-03-02T11:55:38;15.60;99.90
20102;DHT22;10210;52.284;9.892;2024-03-02T11:58:14;15.60;99.90
20102;DHT22;10210;52.284;9.892;2024-03-02T12:00:46;15.70;99.90
20102;DHT22;10210;52.284;9.892;2024-03-02T12:03:13;15.70;99.90
20102;DHT22;10210;52.284;9.892;2024-03-02T12:05:42;15.70;99.90
20102;DHT22;10210;52.284;9.892;2024-03-02T12:08:08;15.60;99.90
20102;DHT22;10210;52.284;9.892;2024-03-02T12:10:36;15.70;99.90
20102;DHT22;10210;52.284;9.892;2024-03-02T12:13:03;15.70;99.90
20102;DHT22;10210;52.284;9.892;2024-03-02T12:15:34;15.70;99.90
20102;DHT22;10210;52.284;9.892;2024-03-02T12:18:02;15.60;99.90
20102;DHT22;10210;52.284;9.892;2024-03-02T12:20:30;15.70;99.90
20102;DHT22;10210;52.284;9.892;2024-03-02T12:22:59;15.70;99.90
20102;DHT22;10210;52.284;9.892;2024-03-02T12:25:26;15.70;99.90
20102;DHT22;10210;52.284;9.892;2024-03-02T12:27:59;15.70;99.90
20102;DHT22;10210;52.284;9.892;2024-03-02T12:30:29;15.80;99.90
20102;DHT22;10210;52.284;9.892;2024-03-02T12:32:56;15.80;99.90
20102;DHT22;10210;52.284;9.892;2024-03-02T12:35:22;15.90;99.90
20102;DHT22;10210;52.284;9.892;2024-03-02T12:37:52;15.90;99.90
20102;DHT22;10210;52.284;9.892;2024-03-02T12:40:19;16.00;99.90
20102;DHT22;10210;52.284;9.892;2024-03-02T12:42:48;16.00;99.90
20102;DHT22;10210;52.284;9.892;2024-03-02T12:45:15;16.00;99.90
20102;DHT22;10210;52.284;9.892;2024-03-02T12:47:42;16.00;99.90
20102;DHT22;10210;52.284;9.892;2024-03-02T12:50:09;16.10;99.90
20102;DHT22;10210;52.284;9.892;2024-03-02T12:52:35;16.10;99.90
20102;DHT22;10210;52.284;9.892;2024-03-02T12:55:06;16.20;99.90
20102;DHT22;10210;52.284;9.892;2024-03-02T12:57:33;16.20;99.90
20102;DHT22;10210;52.284;9.892;2024-03-02T13:00:05;16.20;99.90
20102;DHT22;10210;52.284;9.892;2024-03-02T13:02:35;16.30;99.90
20102;DHT22;10210;52.284;9.892;2024-03-02T13:05:02;16.30;99.90
20102;DHT22;10210;52.284;9.892;2024-03-02T13:07:29;16.40;99.90
20102;DHT22;10210;52.284;9.892;2024-03-02T13:09:56;16.40;99.90
20102;DHT22;10210;52.284;9.892;2024-03-02T13:12:22;16.40;99.90
20102;DHT22;10210;52.284;9.892;2024-03-02T13:14:53;16.50;99.90
20102;DHT22;10210;52.284;9.892;2024-03-02T13:17:19;16.50;99.90
20102;DHT22;10210;52.284;9.892;2024-03-02T13:19:56;16.50;99.90
20102;DHT22;10210;52.284;9.892;2024-03-02T13:22:23;16.50;99.90
20102;DHT22;10210;52.284;9.892;2024-03-02T13:24:50;16.60;99.90
20102;DHT22;10210;52.284;9.892;2024-03-02T13:27:17;16.60;99.90
20102;DHT22;10210;52.284;9.892;2024-03-02T13:29:47;16.60;99.90
20102;DHT22;10210;52.284;9.892;2024-03-02T13:32:16;16.70;99.90
20102;DHT22;10210;52.284;9.892;2024-03-02T13:34:43;16.70;99.90
20102;DHT22;10210;52.284;9.892;2024-03-02T13:37:09;16.70;99.90
20102;DHT22;10210;52.284;9.892;2024-03-02T13:39:35;16.70;99.90
20102;DHT22;10210;52.284;9.892;2024-03-02T13:42:09;16.70;99.90
20102;DHT22;10210;52.284;9.892;2024-03-02T13:44:36;16.80;99.90
20102;DHT22;10210;52.284;9.892;2024-03-02T13:47:04;16.80;99.90
20102;DHT22;10210;52.284;9.892;2024-03-02T13:49:31;16.80;99.90
20102;DHT22;10210;52.284;9.892;2024-03-02T13:52:03;16.80;99.90
20102;DHT22;10210;52.284;9.892;2024-03-02T13:54:37;16.90;99.90
20102;DHT22;10210;52.284;9.892;2024-03-02T13:57:04;16.90;99.90
20102;DHT22;10210;52.284;9.892;2024-03-02T13:59:29;16.90;99.90
20102;DHT22;10210;52.284;9.892;2024-03-02T14:01:56;16.90;99.90
20102;DHT22;10210;52.284;9.892;2024-03-02T14:04:21;17.00;99.90
20102;DHT22;10210;52.284;9.892;2024-03-02T14:06:47;17.00;99.90
20102;DHT22;10210;52.284;9.892;2024-03-02T14:09:13;17.00;99.90
20102;DHT22;10210;52.284;9.892;2024-03-02T14:11:38;17.00;99.90
20102;DHT22;10210;52.284;9.892;2024-03-02T14:14:04;17.10;99.90
20102;DHT22;10210;52.284;9.892;2024-03-02T14:16:30;17.00;99.90
20102;DHT22;10210;52.284;9.892;2024-03-02T14:18:57;17.00;99.90
20102;DHT22;10210;52.284;9.892;2024-03-02T14:21:24;17.10;99.90
20102;DHT22;10210;52.284;9.892;2024-03-02T14:23:50;17.10;99.90
20102;DHT22;10210;52.284;9.892;2024-03-02T14:26:16;17.20;99.90
20102;DHT22;10210;52.284;9.892;2024-03-02T14:28:41;17.20;99.90
20102;DHT22;10210;52.284;9.892;2024-03-02T14:31:07;17.20;99.90
20102;DHT22;10210;52.284;9.892;2024-03-02T14:33:33;17.20;99.90
20102;DHT22;10210;52.284;9.892;2024-03-02T14:35:59;17.20;99.90
20102;DHT22;10210;52.284;9.892;2024-03-02T14:38:25;17.30;99.90
20102;DHT22;10210;52.284;9.892;2024-03-02T14:40:52;17.30;99.90
20102;DHT22;10210;52.284;9.892;2024-03-02T14:43:17;17.30;99.90
20102;DHT22;10210;52.284;9.892;2024-03-02T14:45:43;17.30;99.90
20102;DHT22;10210;52.284;9.892;2024-03-02T14:48:09;17.30;99.90
20102;DHT22;10210;52.284;9.892;2024-03-02T14:50:34;17.30;99.90
20102;DHT22;10210;52.284;9.892;2024-03-02T14:53:00;17.20;99.90
20102;DHT22;10210;52.284;9.892;2024-03-02T14:55:26;17.20;99.90
20102;DHT22;10210;52.284;9.892;2024-03-02T14:57:52;17.20;99.90
20102;DHT22;10210;52.284;9.892;2024-03-02T15:00:18;17.20;99.90
20102;DHT22;10210;52.284;9.892;2024-03-02T15:02:44;17.10;99.90
20102;DHT22;10210;52.284;9.892;2024-03-02T15:05:10;17.10;99.90
20102;DHT22;10210;52.284;9.892;2024-03-02T15:07:35;17.00;99.90
20102;DHT22;10210;52.284;9.892;2024-03-02T15:10:01;17.00;99.90
20102;DHT22;10210;52.284;9.892;2024-03-02T15:12:27;17.10;99.90
20102;DHT22;10210;52.284;9.892;2024-03-02T15:14:52;17.00;99.90
20102;DHT22;10210;52.284;9.892;2024-03-02T15:17:18;17.00;99.90
20102;DHT22;10210;52.284;9.892;2024-03-02T15:19:45;17.00;99.90
20102;DHT22;10210;52.284;9.892;2024-03-02T15:22:11;17.00;99.90
20102;DHT22;10210;52.284;9.892;2024-03-02T15:24:38;16.90;99.90
20102;DHT22;10210;52.284;9.892;2024-03-02T15:27:04;16.90;99.90
20102;DHT22;10210;52.284;9.892;2024-03-02T15:29:32;16.90;99.90
20102;DHT22;10210;52.284;9.892;2024-03-02T15:31:58;16.90;99.90
20102;DHT22;10210;52.284;9.892;2024-03-02T15:34:24;16.90;99.90
20102;DHT22;10210;52.284;9.892;2024-03-02T15:36:50;16.90;99.90
20102;DHT22;10210;52.284;9.892;2024-03-02T15:39:16;16.90;99.90
20102;DHT22;10210;52.284;9.892;2024-03-02T15:41:44;16.90;99.90